Mere Point, Maine
Current Conditions -  °F | °C
As of 2:53 PM on Thursday 27 Nov 2014 (Local Time) from KIWI Reporting Station
Broken Clouds Broken Clouds  
Wind Chill: 35°   Ceiling: 3300
Heat Index: 35°   Visibility: 10mi
Dew Point: 27°   Wind: 3mph
Humidity: 72%   Direction: NA
Pressure: 29.96"   Gusts: NA
Location:  43.903°N, 69.9809°W
Report Text: KIWI 271953Z AUTO VRB03KT 10SM BKN033 02/M03 A2996 RMK AO2 SLP145 T00171028
Loading
Personal Weather Stations






























Interactive Weather Map New forecast layout! Learn more

10-Day Weather Forecast

Advertisements
Track Severe Weather on mobile